Time;durP1;ratioP1;P1;durP2;ratioP2;P2;SDS_P1;SDS_P2;PMS_P1;PMS_P2;Temp;Humidity;BMP_temperature;BMP_pressure;BME280_temperature;BME280_humidity;BME280_pressure;Samples;Min_cycle;Max_cycle;Signal;HPM_P1;HPM_P2
2024/02/26 00:00:01;;;;;;;3.00;2.80;;;;;;;3.38;100.00;99581.84;6231177;22;20023;-84
2024/02/26 00:02:37;;;;;;;2.55;2.38;;;;;;;3.38;100.00;99578.41;6232808;22;20019;-83
2024/02/26 00:05:09;;;;;;;3.50;2.08;;;;;;;3.37;100.00;99571.50;6231486;22;20075;-85
2024/02/26 00:07:42;;;;;;;2.38;2.17;;;;;;;3.37;100.00;99571.50;6232263;22;20024;-84
2024/02/26 00:10:12;;;;;;;2.63;1.90;;;;;;;3.39;100.00;99568.06;6229632;22;20027;-84
2024/02/26 00:12:42;;;;;;;3.42;2.15;;;;;;;3.42;100.00;99574.97;6230884;22;20091;-85
2024/02/26 00:15:15;;;;;;;2.03;1.80;;;;;;;3.43;100.00;99576.69;6230534;22;20055;-84
2024/02/26 00:17:44;;;;;;;4.63;2.22;;;;;;;3.42;100.00;99567.22;6257554;22;20019;-85
2024/02/26 00:20:21;;;;;;;2.50;2.22;;;;;;;3.42;100.00;99577.56;6229277;22;20046;-84
2024/02/26 00:22:50;;;;;;;3.20;2.70;;;;;;;3.40;100.00;99566.31;6230949;22;20026;-84
2024/02/26 00:25:17;;;;;;;2.60;2.30;;;;;;;3.41;100.00;99562.88;6228997;22;20024;-85
2024/02/26 00:27:44;;;;;;;3.47;2.88;;;;;;;3.42;100.00;99565.47;6254837;22;20022;-84
2024/02/26 00:30:15;;;;;;;2.85;2.38;;;;;;;3.42;100.00;99564.63;6224550;22;20107;-84
2024/02/26 00:32:42;;;;;;;3.10;2.22;;;;;;;3.39;100.00;99562.88;6231432;22;20154;-84
2024/02/26 00:35:12;;;;;;;4.07;2.33;;;;;;;3.38;100.00;99563.75;6251427;22;20043;-84
2024/02/26 00:37:45;;;;;;;2.67;2.47;;;;;;;3.36;100.00;99560.28;6281650;22;20030;-85
2024/02/26 00:40:16;;;;;;;3.80;2.35;;;;;;;3.35;100.00;99555.09;6254171;22;20016;-83
2024/02/26 00:42:53;;;;;;;2.97;2.70;;;;;;;3.35;100.00;99562.88;6232127;22;20035;-84
2024/02/26 00:45:21;;;;;;;5.07;3.15;;;;;;;3.32;100.00;99553.38;6231573;22;20014;-84
2024/02/26 00:47:48;;;;;;;6.63;2.60;;;;;;;3.33;100.00;99556.84;6231780;22;20314;-84
2024/02/26 00:50:17;;;;;;;2.60;2.10;;;;;;;3.33;100.00;99549.06;6226725;22;20024;-86
2024/02/26 00:52:44;;;;;;;3.72;2.60;;;;;;;3.36;100.00;99556.84;6229582;22;20043;-84
2024/02/26 00:55:12;;;;;;;4.90;2.42;;;;;;;3.36;100.00;99560.28;6228965;22;20026;-84
2024/02/26 00:57:42;;;;;;;3.35;2.38;;;;;;;3.34;100.00;99548.19;6228246;22;20023;-84
2024/02/26 01:00:12;;;;;;;3.88;2.72;;;;;;;3.34;100.00;99558.53;6227591;22;20035;-85
2024/02/26 01:02:39;;;;;;;3.90;2.47;;;;;;;3.31;100.00;99552.50;6259686;22;20020;-84
2024/02/26 01:05:09;;;;;;;3.45;3.22;;;;;;;3.28;100.00;99549.06;6258902;22;20030;-83
2024/02/26 01:07:36;;;;;;;4.43;2.42;;;;;;;3.28;100.00;99555.06;6210068;22;20027;-84
2024/02/26 01:10:06;;;;;;;2.47;2.00;;;;;;;3.26;100.00;99554.22;6231020;22;20007;-84
2024/02/26 01:12:43;;;;;;;3.30;2.67;;;;;;;3.25;100.00;99552.50;6258041;22;20065;-84
2024/02/26 01:15:13;;;;;;;3.53;2.17;;;;;;;3.25;100.00;99568.00;6232136;22;20016;-84
2024/02/26 01:17:40;;;;;;;6.80;2.63;;;;;;;3.21;100.00;99565.44;6230830;22;20019;-85
2024/02/26 01:20:11;;;;;;;3.97;2.90;;;;;;;3.22;100.00;99568.00;6256503;22;20011;-84
2024/02/26 01:22:40;;;;;;;3.97;3.25;;;;;;;3.24;100.00;99568.84;6227180;22;20020;-85
2024/02/26 01:25:12;;;;;;;3.25;2.50;;;;;;;3.29;100.00;99566.31;6230366;22;20295;-83
2024/02/26 01:27:42;;;;;;;5.97;3.25;;;;;;;3.31;100.00;99561.97;6255748;22;20035;-84
2024/02/26 01:30:16;;;;;;;2.92;2.67;;;;;;;3.35;100.00;99566.34;6228507;22;20028;-84
2024/02/26 01:32:46;;;;;;;4.82;2.60;;;;;;;3.38;100.00;99558.56;6230406;22;20023;-85
2024/02/26 01:35:16;;;;;;;3.55;3.25;;;;;;;3.39;100.00;99564.59;6232297;22;20385;-84
2024/02/26 01:37:47;;;;;;;3.05;2.33;;;;;;;3.39;100.00;99559.41;6232728;22;20329;-84
2024/02/26 01:40:19;;;;;;;3.10;2.40;;;;;;;3.35;100.00;99557.69;6231914;22;20551;-83
2024/02/26 01:42:48;;;;;;;6.88;3.03;;;;;;;3.34;100.00;99558.53;6232824;22;20024;-84
2024/02/26 01:45:46;;;;;;;5.97;3.50;;;;;;;3.28;100.00;99554.22;6253798;22;20049;-84
2024/02/26 01:48:19;;;;;;;;;;;;;;;3.24;100.00;99561.09;6229202;22;20040;-84
2024/02/26 01:50:49;;;;;;;3.90;2.85;;;;;;;3.24;100.00;99558.50;6254712;22;19939;-85
2024/02/26 01:53:18;;;;;;;2.45;2.15;;;;;;;3.21;100.00;99570.59;6228393;22;20031;-83
2024/02/26 01:55:45;;;;;;;2.75;2.38;;;;;;;3.19;100.00;99567.97;6250259;22;20027;-84
2024/02/26 01:58:16;;;;;;;3.42;2.55;;;;;;;3.14;100.00;99567.97;6250973;22;20024;-85
2024/02/26 02:00:46;;;;;;;5.50;2.45;;;;;;;3.14;100.00;99572.28;6253309;22;20077;-85
2024/02/26 02:03:15;;;;;;;3.85;3.42;;;;;;;3.14;100.00;99575.75;6254309;22;20042;-85
2024/02/26 02:05:46;;;;;;;4.47;2.38;;;;;;;3.14;100.00;99578.31;6228459;22;20019;-84
2024/02/26 02:08:18;;;;;;;4.68;2.95;;;;;;;3.12;100.00;99568.84;6253567;22;20016;-84
2024/02/26 02:10:47;;;;;;;3.65;3.15;;;;;;;3.12;100.00;99572.28;6229753;22;20027;-85
2024/02/26 02:13:15;;;;;;;6.32;3.22;;;;;;;3.13;100.00;99566.25;6254813;22;20026;-84
2024/02/26 02:15:47;;;;;;;2.53;2.20;;;;;;;3.12;100.00;99569.69;6226394;22;20027;-83
2024/02/26 02:18:17;;;;;;;8.57;3.33;;;;;;;3.10;100.00;99575.72;6232129;22;20023;-83
2024/02/26 02:20:44;;;;;;;6.18;2.72;;;;;;;3.03;100.00;99574.81;6229073;22;20091;-82
2024/02/26 02:23:15;;;;;;;5.50;2.53;;;;;;;3.04;100.00;99581.72;6255340;22;20051;-83
2024/02/26 02:25:48;;;;;;;3.22;2.45;;;;;;;3.08;100.00;99575.72;6232083;22;20051;-85
2024/02/26 02:28:19;;;;;;;3.97;2.45;;;;;;;3.10;100.00;99574.00;6257663;22;20023;-85
2024/02/26 02:30:50;;;;;;;2.92;2.53;;;;;;;3.13;100.00;99570.56;6231600;22;20345;-83
2024/02/26 02:33:20;;;;;;;5.50;2.33;;;;;;;3.12;100.00;99568.84;6233091;22;20034;-84
2024/02/26 02:35:57;;;;;;;7.00;3.03;;;;;;;3.15;100.00;99566.25;6261037;22;20047;-84
2024/02/26 02:38:34;;;;;;;3.30;2.38;;;;;;;3.10;100.00;99571.41;6236049;22;20023;-83
2024/02/26 02:41:07;;;;;;;2.35;2.15;;;;;;;3.14;100.00;99562.81;6261410;22;20015;-83
2024/02/26 02:43:34;;;;;;;5.25;2.67;;;;;;;3.13;100.00;99561.06;6259941;22;20082;-84
2024/02/26 02:46:11;;;;;;;3.90;2.25;;;;;;;3.12;100.00;99566.25;6208427;22;20047;-83
2024/02/26 02:48:51;;;;;;;2.42;1.73;;;;;;;3.06;100.00;99568.81;6235219;22;20012;-84
2024/02/26 02:51:21;;;;;;;2.85;2.60;;;;;;;3.08;100.00;99564.50;6257991;22;20023;-83
2024/02/26 02:53:51;;;;;;;2.45;2.03;;;;;;;3.03;100.00;99563.63;6269936;22;20085;-84
2024/02/26 02:56:20;;;;;;;3.25;2.08;;;;;;;3.01;100.00;99575.66;6233398;22;20019;-84
2024/02/26 02:58:47;;;;;;;3.78;1.92;;;;;;;3.00;100.00;99579.09;6257976;22;20019;-82
2024/02/26 03:01:17;;;;;;;4.90;2.50;;;;;;;2.98;100.00;99573.94;6259850;22;20020;-84
2024/02/26 03:03:53;;;;;;;2.72;2.10;;;;;;;2.96;100.00;99576.53;6233633;22;20026;-84
2024/02/26 03:06:26;;;;;;;4.95;1.92;;;;;;;2.97;100.00;99582.53;6232595;22;20423;-84
2024/02/26 03:08:54;;;;;;;3.35;1.80;;;;;;;2.95;100.00;99579.09;6231951;22;20046;-84
2024/02/26 03:11:21;;;;;;;4.30;2.00;;;;;;;2.96;100.00;99586.88;6255804;22;20019;-85
2024/02/26 03:13:51;;;;;;;2.03;1.92;;;;;;;2.98;100.00;99584.28;6231301;22;20026;-84
2024/02/26 03:16:23;;;;;;;4.70;3.88;;;;;;;2.98;100.00;99579.97;6230275;22;20051;-84
2024/02/26 03:18:53;;;;;;;2.65;2.28;;;;;;;2.98;100.00;99579.09;6256156;22;20007;-85
2024/02/26 03:21:20;;;;;;;6.07;2.55;;;;;;;2.96;100.00;99586.00;6230984;22;20020;-85
2024/02/26 03:23:49;;;;;;;4.72;2.25;;;;;;;2.95;100.00;99585.13;6257032;22;20103;-85
2024/02/26 03:26:15;;;;;;;4.43;2.28;;;;;;;2.98;100.00;99586.88;6255998;22;20050;-84
2024/02/26 03:28:42;;;;;;;5.97;3.00;;;;;;;2.97;100.00;99586.00;6231144;22;20015;-84
2024/02/26 03:31:12;;;;;;;5.22;2.17;;;;;;;2.99;100.00;99588.59;6257589;22;20027;-83
2024/02/26 03:33:46;;;;;;;3.97;2.30;;;;;;;3.01;100.00;99589.44;6231912;22;20061;-84
2024/02/26 03:36:32;;;;;;;;;;;;;;;;;;;;;
2024/02/26 03:41:46;;;;;;;6.30;2.42;;;;;;;2.99;100.00;99596.34;6239571;22;20332;-83
2024/02/26 03:44:23;;;;;;;5.30;1.92;;;;;;;2.97;100.00;99588.59;6237817;22;20027;-85
2024/02/26 03:46:59;;;;;;;4.93;1.67;;;;;;;3.00;100.00;99589.44;6240871;22;20020;-82
2024/02/26 03:49:32;;;;;;;4.15;1.98;;;;;;;2.99;100.00;99588.59;6255044;22;20027;-83
2024/02/26 03:52:06;;;;;;;2.40;1.70;;;;;;;2.98;100.00;99584.28;6229097;22;20028;-83
2024/02/26 03:54:33;;;;;;;5.13;2.03;;;;;;;3.00;100.00;99585.16;6228675;22;20038;-84
2024/02/26 03:57:01;;;;;;;3.08;1.98;;;;;;;3.00;100.00;99584.28;6230715;22;20043;-83
2024/02/26 03:59:30;;;;;;;6.43;2.63;;;;;;;3.03;100.00;99584.31;6254115;22;20093;-84
2024/02/26 04:01:57;;;;;;;1.88;1.60;;;;;;;3.02;100.00;99587.75;6256706;22;20076;-83
2024/02/26 04:04:32;;;;;;;2.42;2.00;;;;;;;3.05;100.00;99593.81;6257668;22;20020;-84
2024/02/26 04:07:05;;;;;;;3.10;1.73;;;;;;;3.06;100.00;99589.47;6259707;22;20272;-83
2024/02/26 04:09:35;;;;;;;1.88;1.77;;;;;;;3.05;100.00;99593.81;6229419;22;20020;-84
2024/02/26 04:12:05;;;;;;;2.13;1.95;;;;;;;3.08;100.00;99593.81;6282215;22;20110;-84
2024/02/26 04:17:41;;;;;;;2.72;1.60;;;;;;;3.16;100.00;99593.84;6255900;23;20032;-84
2024/02/26 04:20:14;;;;;;;1.77;1.67;;;;;;;3.18;100.00;99604.19;6231417;22;20579;-84
2024/02/26 04:22:44;;;;;;;2.20;1.95;;;;;;;3.22;100.00;99599.03;6233268;22;20276;-84
2024/02/26 04:25:22;;;;;;;1.60;1.50;;;;;;;3.26;100.00;99603.38;6233285;22;20325;-85
2024/02/26 04:27:55;;;;;;;2.00;1.90;;;;;;;3.27;100.00;99606.81;6260353;22;20029;-84
2024/02/26 04:30:27;;;;;;;3.20;1.73;;;;;;;3.32;100.00;99605.09;6261234;22;20486;-84
2024/02/26 04:32:59;;;;;;;1.70;1.40;;;;;;;3.35;100.00;99606.84;6260772;22;20022;-83
2024/02/26 04:35:35;;;;;;;2.35;1.80;;;;;;;3.36;100.00;99616.34;6236115;22;20004;-84
2024/02/26 04:38:25;;;;;;;1.52;1.42;;;;;;;3.35;100.00;99618.06;6261565;22;20027;-85
2024/02/26 04:40:51;;;;;;;2.22;1.60;;;;;;;3.37;100.00;99620.66;6285821;22;20109;-85
2024/02/26 04:43:47;;;;;;;2.08;1.58;;;;;;;3.34;100.00;99621.50;6235732;22;20007;-84
2024/02/26 04:54:47;;;;;;;4.05;1.90;;;;;;;3.28;100.00;99624.91;6221052;22;20035;-84
2024/02/26 04:57:38;;;;;;;2.75;1.73;;;;;;;3.28;100.00;99631.81;6218357;22;20020;-84
2024/02/26 05:06:50;;;;;;;1.88;1.77;;;;;;;3.26;100.00;99649.03;6248516;22;20004;-83
2024/02/26 05:09:41;;;;;;;;;;;;;;;;;;;;;
2024/02/26 05:12:16;;;;;;;3.13;2.10;;;;;;;3.24;100.00;99653.38;6244172;22;20068;-84
2024/02/26 05:18:33;;;;;;;2.15;1.98;;;;;;;3.21;100.00;99649.03;6285878;22;20023;-84
2024/02/26 05:21:09;;;;;;;1.67;1.45;;;;;;;3.17;100.00;99651.59;6237708;22;20019;-85
2024/02/26 05:23:54;;;;;;;2.35;2.15;;;;;;;3.19;100.00;99660.22;6236442;22;20123;-84
2024/02/26 05:26:45;;;;;;;2.75;1.88;;;;;;;3.19;100.00;99658.50;6236809;22;20019;-84
2024/02/26 05:29:17;;;;;;;4.45;1.58;;;;;;;3.19;100.00;99655.91;6168269;22;20081;-83
2024/02/26 05:31:48;;;;;;;2.25;1.85;;;;;;;3.12;100.00;99652.44;6211846;22;20020;-84
2024/02/26 05:34:25;;;;;;;2.42;2.10;;;;;;;3.14;100.00;99653.31;6260212;22;20034;-82
2024/02/26 05:36:54;;;;;;;2.88;1.65;;;;;;;3.14;100.00;99660.19;6264913;22;20050;-83
2024/02/26 05:39:33;;;;;;;3.13;1.80;;;;;;;3.08;100.00;99658.44;6236916;22;20039;-83
2024/02/26 05:42:09;;;;;;;5.72;2.40;;;;;;;3.13;100.00;99661.06;6236003;22;20023;-83
2024/02/26 05:44:37;;;;;;;2.95;2.47;;;;;;;3.13;100.00;99661.06;6259798;22;20019;-84
2024/02/26 05:47:11;;;;;;;4.47;2.20;;;;;;;3.15;100.00;99661.94;6231686;22;20016;-83
2024/02/26 05:49:41;;;;;;;2.25;2.03;;;;;;;3.15;100.00;99664.50;6233675;22;20023;-87
2024/02/26 05:52:26;;;;;;;3.40;2.75;;;;;;;3.15;100.00;99659.34;6230750;23;20020;-85
2024/02/26 05:54:54;;;;;;;5.90;2.80;;;;;;;3.23;100.00;99667.13;6235037;23;20016;-84
2024/02/26 05:57:24;;;;;;;5.05;2.25;;;;;;;3.24;100.00;99672.31;6207777;23;20020;-86
2024/02/26 05:59:53;;;;;;;2.35;1.67;;;;;;;3.27;100.00;99674.94;6202734;23;20016;-83
2024/02/26 06:02:22;;;;;;;2.15;1.83;;;;;;;3.34;100.00;99677.53;6229322;23;20534;-84
2024/02/26 06:04:49;;;;;;;2.38;1.58;;;;;;;3.34;100.00;99680.13;6205380;23;20024;-83
2024/02/26 06:07:26;;;;;;;3.47;2.13;;;;;;;3.37;100.00;99672.41;6232297;23;19996;-84
2024/02/26 06:09:56;;;;;;;2.35;1.70;;;;;;;3.31;100.00;99671.50;6224580;23;20110;-83
2024/02/26 06:12:33;;;;;;;;;;;;;;;;;;;;;
2024/02/26 06:15:02;;;;;;;2.28;1.70;;;;;;;3.39;100.00;99681.00;6229475;23;20026;-85
2024/02/26 06:17:29;;;;;;;12.50;3.45;;;;;;;3.42;100.00;99681.91;6226455;23;20024;-85
2024/02/26 06:19:59;;;;;;;4.32;2.53;;;;;;;3.31;100.00;99680.97;6201989;23;20039;-84
2024/02/26 06:22:28;;;;;;;3.38;2.15;;;;;;;3.40;100.00;99680.16;6204206;23;20023;-84
2024/02/26 06:25:02;;;;;;;2.30;2.08;;;;;;;3.46;100.00;99691.38;6206091;23;20087;-84
2024/02/26 06:27:31;;;;;;;;;;;;;;;3.50;100.00;99691.44;6207553;23;20016;-85
2024/02/26 06:30:14;;;;;;;2.00;1.85;;;;;;;3.48;100.00;99691.38;6230332;23;20245;-85
2024/02/26 06:32:46;;;;;;;3.00;2.73;;;;;;;3.50;100.00;99692.28;6230575;23;20024;-85
2024/02/26 06:35:21;;;;;;;4.00;2.17;;;;;;;3.53;100.00;99694.00;6227551;23;20044;-83
2024/02/26 06:37:54;;;;;;;2.60;1.83;;;;;;;3.58;100.00;99700.94;6228641;23;20027;-85
2024/02/26 06:40:20;;;;;;;5.05;2.28;;;;;;;3.69;100.00;99713.06;6202207;23;20055;-85
2024/02/26 06:43:00;;;;;;;5.47;2.45;;;;;;;3.57;100.00;99714.75;6204188;23;20043;-84
2024/02/26 06:45:48;;;;;;;2.67;2.00;;;;;;;3.64;100.00;99716.50;6197825;23;20020;-83
2024/02/26 06:48:15;;;;;;;3.17;2.40;;;;;;;3.69;100.00;99713.06;6223791;23;20035;-86
2024/02/26 06:50:47;;;;;;;1.92;1.80;;;;;;;3.70;100.00;99726.00;6204093;22;20084;-83
2024/02/26 06:53:14;;;;;;;10.00;2.60;;;;;;;3.73;100.00;99727.72;6230466;22;20024;-82
2024/02/26 06:55:41;;;;;;;1.70;1.60;;;;;;;3.77;100.00;99737.25;6229426;22;20069;-83
2024/02/26 06:58:24;;;;;;;;;;;;;;;;;;;;;
2024/02/26 07:00:56;;;;;;;2.65;2.45;;;;;;;3.90;100.00;99753.72;6233526;22;20016;-83
2024/02/26 07:03:29;;;;;;;5.07;2.83;;;;;;;3.93;100.00;99754.56;6230665;22;20015;-85
2024/02/26 07:05:56;;;;;;;4.65;2.30;;;;;;;4.00;100.00;99758.03;6233441;22;20078;-84
2024/02/26 07:08:23;;;;;;;5.65;3.67;;;;;;;4.02;100.00;99758.06;6232199;22;20042;-82
2024/02/26 07:10:55;;;;;;;2.70;2.40;;;;;;;4.00;100.00;99760.63;6256281;22;20012;-84
2024/02/26 07:13:23;;;;;;;2.97;2.47;;;;;;;4.01;100.00;99767.53;6257304;22;20020;-83
2024/02/26 07:15:50;;;;;;;2.03;1.83;;;;;;;4.03;100.00;99763.25;6206002;22;20035;-83
2024/02/26 07:18:18;;;;;;;2.78;2.50;;;;;;;3.97;100.00;99769.25;6261873;22;20026;-84
2024/02/26 07:20:45;;;;;;;4.40;3.03;;;;;;;4.11;100.00;99773.63;6261380;22;20020;-84
2024/02/26 07:25:58;;;;;;;5.22;4.10;;;;;;;4.15;100.00;99775.38;6214554;22;20431;-83
2024/02/26 07:28:29;;;;;;;4.07;3.78;;;;;;;4.03;100.00;99777.91;6261053;22;20020;-83
2024/02/26 07:31:00;;;;;;;3.63;3.33;;;;;;;4.09;100.00;99772.75;6262951;22;20638;-83
2024/02/26 07:33:31;;;;;;;6.65;2.72;;;;;;;4.07;100.00;99770.16;6233086;22;20042;-82
2024/02/26 07:36:18;;;;;;;4.97;3.03;;;;;;;4.10;100.00;99772.75;6235461;22;20074;-84
2024/02/26 07:38:59;;;;;;;;;;;;;;;;;;;;;
2024/02/26 07:41:32;;;;;;;3.65;2.13;;;;;;;4.05;100.00;99765.84;6238427;22;20015;-84
2024/02/26 07:44:09;;;;;;;;;;;;;;;;;;;;;
2024/02/26 07:46:41;;;;;;;7.68;3.00;;;;;;;4.16;100.00;99776.22;6262158;22;20024;-83
2024/02/26 07:49:10;;;;;;;7.30;2.80;;;;;;;4.26;100.00;99772.78;6259133;22;20023;-83
2024/02/26 07:51:45;;;;;;;4.10;2.70;;;;;;;4.30;100.00;99779.72;6232845;22;20020;-83
2024/02/26 07:54:15;;;;;;;5.22;2.50;;;;;;;4.38;100.00;99778.03;6258094;22;20049;-84
2024/02/26 07:57:05;;;;;;;7.45;3.42;;;;;;;4.40;100.00;99775.44;6213897;22;20049;-83
2024/02/26 08:05:45;;;;;;;;;;;;;;;;;;;;;
2024/02/26 08:08:41;;;;;;;3.72;2.67;;;;;;;4.54;100.00;99783.25;6148440;23;20072;-85
2024/02/26 08:11:13;;;;;;;4.82;2.47;;;;;;;4.66;99.95;99788.44;6249792;22;20022;-84
2024/02/26 08:13:45;;;;;;;6.75;3.08;;;;;;;4.72;98.81;99784.97;6291762;22;20352;-83
2024/02/26 08:16:24;;;;;;;4.70;2.72;;;;;;;4.71;98.62;99786.72;6294333;22;20101;-83
2024/02/26 08:18:50;;;;;;;3.13;2.38;;;;;;;4.75;98.31;99785.84;6292609;22;20590;-82
2024/02/26 08:21:33;;;;;;;2.67;2.33;;;;;;;4.70;98.19;99789.31;6291607;22;20094;-84
2024/02/26 08:24:06;;;;;;;3.33;2.90;;;;;;;4.63;98.55;99793.63;6293252;22;20030;-84
2024/02/26 08:26:37;;;;;;;4.10;2.70;;;;;;;4.71;99.03;99789.28;6284767;22;20078;-84
2024/02/26 08:29:08;;;;;;;4.72;2.92;;;;;;;4.68;98.94;99789.31;6290120;22;20025;-84
2024/02/26 08:31:37;;;;;;;4.60;2.50;;;;;;;4.55;99.25;99784.94;6292059;22;20106;-84
2024/02/26 08:34:11;;;;;;;2.83;2.63;;;;;;;4.59;99.02;99778.94;6290920;22;20018;-85
2024/02/26 08:36:43;;;;;;;2.63;2.42;;;;;;;4.70;97.77;99778.94;6314160;22;20113;-84
2024/02/26 08:39:13;;;;;;;3.30;2.85;;;;;;;4.88;97.47;99780.69;6292330;22;20101;-86
2024/02/26 08:41:42;;;;;;;4.05;3.10;;;;;;;4.92;96.29;99780.66;6319289;22;20110;-84
2024/02/26 08:44:12;;;;;;;3.63;1.75;;;;;;;5.12;95.60;99783.25;6291144;22;20018;-84
2024/02/26 08:46:41;;;;;;;1.80;1.70;;;;;;;5.12;92.58;99783.25;6282080;22;20454;-84
2024/02/26 08:49:23;;;;;;;2.72;1.83;;;;;;;5.18;92.35;99797.94;6292546;22;20025;-83
2024/02/26 08:51:54;;;;;;;2.80;2.58;;;;;;;5.16;91.90;99785.84;6323915;22;20022;-83
2024/02/26 08:54:37;;;;;;;3.60;2.10;;;;;;;5.28;91.38;99793.63;6247374;22;20019;-86
2024/02/26 08:57:45;;;;;;;3.00;1.67;;;;;;;5.23;90.87;99785.84;6294593;22;20082;-83
2024/02/26 09:00:21;;;;;;;2.47;2.08;;;;;;;5.23;90.39;99787.59;6274000;22;20019;-83
2024/02/26 09:03:00;;;;;;;1.88;1.70;;;;;;;5.33;89.72;99789.28;6269399;22;20034;-85
2024/02/26 09:05:39;;;;;;;;;;;;;;;;;;;;;
2024/02/26 09:08:23;;;;;;;2.13;2.03;;;;;;;5.43;88.28;99790.13;6280277;22;20098;-84
2024/02/26 09:10:59;;;;;;;2.20;2.00;;;;;;;5.51;88.60;99787.53;6287161;22;20031;-84
2024/02/26 09:13:25;;;;;;;2.17;1.85;;;;;;;5.57;87.66;99782.31;6258423;22;20019;-83
2024/02/26 09:15:54;;;;;;;1.67;1.58;;;;;;;5.63;87.91;99780.56;6262109;22;20026;-83
2024/02/26 09:18:28;;;;;;;2.85;1.70;;;;;;;5.69;87.18;99789.22;6286552;22;20080;-84
2024/02/26 09:21:00;;;;;;;1.83;1.73;;;;;;;5.69;86.49;99784.03;6259291;22;20023;-83
2024/02/26 09:23:27;;;;;;;3.08;1.42;;;;;;;5.82;86.54;99795.25;6283864;22;20026;-84
2024/02/26 09:25:57;;;;;;;3.25;1.80;;;;;;;5.73;85.94;99793.53;6284216;22;20023;-84
2024/02/26 09:28:37;;;;;;;1.38;1.20;;;;;;;5.68;85.40;99792.66;6282260;22;20023;-83
2024/02/26 09:31:16;;;;;;;;;;;;;;;;;;;;;
2024/02/26 09:33:54;;;;;;;1.45;1.35;;;;;;;5.89;84.46;99799.53;6285423;22;20046;-84
2024/02/26 09:36:27;;;;;;;1.50;1.40;;;;;;;5.92;84.54;99804.72;6286511;22;20102;-83
2024/02/26 09:38:54;;;;;;;1.43;1.33;;;;;;;5.91;83.48;99803.84;6287668;22;20019;-84
2024/02/26 09:41:34;;;;;;;;;;;;;;;;;;;;;
2024/02/26 09:47:32;;;;;;;;;;;;;;;;;;;;;
2024/02/26 09:50:23;;;;;;;;;;;;;;;;;;;;;
2024/02/26 09:52:52;;;;;;;1.50;1.40;;;;;;;6.02;82.79;99824.59;6263922;22;20077;-84
2024/02/26 09:55:21;;;;;;;1.33;0.98;;;;;;;6.08;82.86;99813.34;6257878;22;20109;-84
2024/02/26 09:57:58;;;;;;;1.50;1.40;;;;;;;6.16;82.52;99819.38;6286311;22;20459;-83
2024/02/26 10:00:33;;;;;;;1.40;1.30;;;;;;;6.20;82.53;99828.03;6283822;22;20019;-83
2024/02/26 10:03:05;;;;;;;1.05;0.90;;;;;;;6.38;82.15;99830.53;6259102;22;20049;-84
2024/02/26 10:05:35;;;;;;;1.23;1.00;;;;;;;6.35;81.60;99832.28;6284486;22;20449;-83
2024/02/26 10:08:10;;;;;;;1.70;1.60;;;;;;;6.48;81.27;99830.47;6281541;22;20392;-82
2024/02/26 10:10:53;;;;;;;4.30;1.90;;;;;;;6.66;80.61;99832.13;6256076;22;20666;-82
2024/02/26 10:13:20;;;;;;;4.03;1.63;;;;;;;6.77;79.30;99838.13;6278663;22;20019;-83
2024/02/26 10:15:47;;;;;;;2.95;1.67;;;;;;;6.75;79.28;99845.94;6280806;22;20019;-81
2024/02/26 10:18:24;;;;;;;9.70;3.80;;;;;;;6.77;78.98;99854.56;6256732;22;20030;-83
2024/02/26 10:21:04;;;;;;;7.25;1.95;;;;;;;6.68;78.55;99851.19;6281062;22;20448;-83
2024/02/26 10:23:30;;;;;;;4.07;1.33;;;;;;;6.84;78.97;99858.00;6254201;22;20019;-83
2024/02/26 10:25:57;;;;;;;2.30;1.45;;;;;;;6.88;77.57;99859.72;6254065;22;20444;-83
2024/02/26 10:28:33;;;;;;;1.33;1.23;;;;;;;6.88;78.04;99856.25;6255899;22;20019;-82
2024/02/26 10:31:00;;;;;;;2.10;1.42;;;;;;;7.02;77.98;99866.56;6279790;22;20050;-82
2024/02/26 10:33:26;;;;;;;2.08;1.40;;;;;;;6.94;76.87;99875.28;6282412;22;20042;-82
2024/02/26 10:35:55;;;;;;;0.82;0.82;;;;;;;6.93;77.89;99870.94;6256761;22;20103;-80
2024/02/26 10:38:22;;;;;;;3.03;1.08;;;;;;;6.83;77.28;99876.22;6308573;22;20023;-81
2024/02/26 10:40:50;;;;;;;2.42;1.10;;;;;;;6.72;77.47;99879.75;6255773;22;20352;-83
2024/02/26 10:43:16;;;;;;;1.27;1.20;;;;;;;6.79;77.57;99867.56;6255737;22;20106;-81
2024/02/26 10:45:44;;;;;;;1.52;1.10;;;;;;;6.97;78.10;99873.53;6261018;22;20029;-83
2024/02/26 10:48:15;;;;;;;1.23;0.95;;;;;;;7.02;77.48;99874.38;6258451;22;20019;-83
2024/02/26 10:50:45;;;;;;;1.15;0.88;;;;;;;7.08;76.86;99872.59;6256969;22;20022;-84
2024/02/26 10:53:21;;;;;;;4.78;1.20;;;;;;;7.11;76.67;99877.75;6281221;22;20028;-83
2024/02/26 10:59:01;;;;;;;3.97;2.33;;;;;;;7.25;76.72;99882.88;6297739;22;20022;-81
2024/02/26 11:01:33;;;;;;;3.20;1.52;;;;;;;7.33;76.43;99882.81;6290980;22;20453;-82
2024/02/26 11:04:01;;;;;;;2.03;1.85;;;;;;;7.29;76.40;99871.56;6293658;22;20026;-82
2024/02/26 11:06:34;;;;;;;3.65;1.20;;;;;;;7.34;77.32;99873.25;6272620;22;20027;-82
2024/02/26 11:09:06;;;;;;;1.80;1.60;;;;;;;7.41;77.37;99870.59;6270025;22;20062;-82
2024/02/26 11:11:35;;;;;;;3.65;2.00;;;;;;;7.43;77.61;99876.66;6270125;22;20075;-80
2024/02/26 11:14:09;;;;;;;4.25;2.22;;;;;;;7.43;78.31;99873.16;6235948;22;20015;-82
2024/02/26 11:16:40;;;;;;;3.63;2.03;;;;;;;7.40;77.73;99870.59;6262326;22;20039;-83
2024/02/26 11:19:11;;;;;;;2.55;2.00;;;;;;;7.19;77.49;99874.25;6261138;22;20019;-84
2024/02/26 11:21:42;;;;;;;3.20;2.15;;;;;;;7.37;77.73;99868.03;6284993;22;20022;-83
2024/02/26 11:24:21;;;;;;;2.75;1.75;;;;;;;7.41;77.19;99865.38;6258783;22;20038;-84
2024/02/26 11:27:12;;;;;;;6.00;2.38;;;;;;;7.47;77.27;99869.69;6257697;22;20019;-83
2024/02/26 11:29:48;;;;;;;1.52;1.42;;;;;;;7.62;76.41;99861.72;6263270;22;20019;-81
2024/02/26 11:32:15;;;;;;;2.10;1.58;;;;;;;7.53;77.25;99871.38;6282671;22;20019;-83
2024/02/26 11:34:43;;;;;;;3.00;1.95;;;;;;;7.61;77.31;99872.16;6282886;22;20057;-81
2024/02/26 11:37:22;;;;;;;6.05;2.33;;;;;;;7.92;77.13;99864.03;6228638;22;20023;-81
2024/02/26 11:39:53;;;;;;;6.63;1.77;;;;;;;7.81;77.35;99864.16;6285126;22;20023;-80
2024/02/26 11:42:31;;;;;;;3.17;2.15;;;;;;;7.92;76.93;99866.63;6282641;22;20026;-81
2024/02/26 11:45:03;;;;;;;2.22;1.63;;;;;;;8.00;76.63;99863.94;6284701;22;20023;-84
2024/02/26 11:47:40;;;;;;;3.35;2.70;;;;;;;8.08;76.72;99867.31;6284319;22;20023;-82
2024/02/26 11:50:37;;;;;;;1.85;1.75;;;;;;;8.19;75.78;99864.63;6267065;22;20022;-83
2024/02/26 11:53:35;;;;;;;3.28;2.38;;;;;;;8.44;75.09;99868.63;6258916;22;20042;-80
2024/02/26 11:56:39;;;;;;;2.65;2.45;;;;;;;8.63;75.01;99867.56;6258519;22;20094;-81
2024/02/26 11:59:45;;;;;;;2.72;2.40;;;;;;;8.52;74.27;99867.69;6282028;22;20126;-83
2024/02/26 12:02:43;;;;;;;4.18;1.92;;;;;;;8.69;72.96;99876.16;6284654;22;20033;-82
2024/02/26 12:05:19;;;;;;;2.60;2.40;;;;;;;8.88;73.19;99873.31;6281508;22;20027;-82
2024/02/26 12:07:49;;;;;;;2.42;1.75;;;;;;;8.85;73.20;99875.94;6283174;22;20290;-83
2024/02/26 12:10:34;;;;;;;2.92;2.33;;;;;;;8.77;73.51;99882.16;6283935;22;20015;-82
2024/02/26 12:13:19;;;;;;;4.32;1.52;;;;;;;8.67;73.25;99885.75;6283104;22;20076;-82
2024/02/26 12:16:04;;;;;;;1.98;1.80;;;;;;;8.60;74.18;99879.78;6282082;22;20030;-81
2024/02/26 12:18:37;;;;;;;2.92;2.53;;;;;;;8.77;73.48;99886.50;6282298;22;20094;-83
2024/02/26 12:21:12;;;;;;;3.08;1.70;;;;;;;8.49;74.37;99888.63;6259409;22;20046;-82
2024/02/26 12:23:39;;;;;;;3.95;2.50;;;;;;;8.60;75.15;99894.53;6281650;22;20019;-82
2024/02/26 12:26:06;;;;;;;7.05;2.03;;;;;;;8.63;74.23;99891.91;6284876;22;20083;-80
2024/02/26 12:28:33;;;;;;;3.42;1.80;;;;;;;8.35;74.80;99902.63;6255852;22;20030;-83
2024/02/26 12:31:00;;;;;;;2.60;2.05;;;;;;;8.51;75.17;99905.94;6282538;22;20011;-81
2024/02/26 12:33:28;;;;;;;3.42;2.70;;;;;;;8.83;73.95;99901.22;6255322;22;20023;-83
2024/02/26 12:35:54;;;;;;;2.33;2.15;;;;;;;8.66;73.67;99896.22;6281748;22;20019;-83
2024/02/26 12:38:24;;;;;;;4.18;2.75;;;;;;;8.70;73.23;99901.38;6257001;22;20077;-82
2024/02/26 12:40:51;;;;;;;2.47;2.15;;;;;;;8.58;73.88;99907.63;6258058;22;20022;-84
2024/02/26 12:43:21;;;;;;;2.72;2.15;;;;;;;8.78;73.04;99893.44;6258093;22;20034;-83
2024/02/26 12:45:47;;;;;;;7.65;2.72;;;;;;;8.99;72.93;99904.47;6281438;22;20023;-83
2024/02/26 12:48:15;;;;;;;2.53;2.33;;;;;;;8.97;71.94;99894.06;6281277;22;20152;-82
2024/02/26 12:50:47;;;;;;;4.90;3.58;;;;;;;9.32;71.27;99905.72;6282794;22;20015;-83
2024/02/26 12:53:16;;;;;;;2.50;2.30;;;;;;;9.24;70.62;99907.56;6257933;22;20027;-82
2024/02/26 12:55:45;;;;;;;2.40;2.03;;;;;;;9.36;70.94;99906.50;6259566;22;20440;-83
2024/02/26 12:58:13;;;;;;;5.22;2.92;;;;;;;9.56;69.90;99906.19;6257242;22;20479;-83